OAKB/KBL METAR and TAF weather

Enter ICAO airport designator
Station Type Date Time Source
OAKB METAR 2019/09/20 09:50 UTC NOAA

OAKB 200950Z 07006KT CAVOK 29/M10 Q1019 NOSIG RMK A3009 BLU BLU


Station Type Date Time Source
OAKB Decoded METAR 2019/09/20 09:50 UTC NOAA

Kabul Airport, Afghanistan (OAKB) 34-38N 069-12E
Sep 20, 2019 - 05:50 AM EDT / 2019.09.20 0950 UTC
Wind: from the ENE (070 degrees) at 7 MPH (6 KT):0
Visibility: greater than 7 mile(s):0
Temperature: 84 F (29 C)
Dew Point: 14 F (-10 C)
Relative Humidity: 7%
Pressure (altimeter): 30.09 in. Hg (1019 hPa)
ob: OAKB 200950Z 07006KT CAVOK 29/M10 Q1019 NOSIG RMK A3009 BLU BLU
cycle: 10

Station Type Date Time Source
OAKB TAF 2019/09/20 06:05 UTC NOAA

TAF OAKB 200505Z 2006/2106 VRB02KT CAVOK
BECMG 2008/2010 01012KT
TEMPO 2012/2016 02015G30KT
BECMG 2019/2020 VRB02KT

Example: see airport list